sensor_id;sensor_type;location;lat;lon;timestamp;temperature;humidity
1347;DHT22;667;48.796;9.480;2022-10-31T00:01:39;14.70;81.20
1347;DHT22;667;48.796;9.480;2022-10-31T00:04:08;14.70;81.50
1347;DHT22;667;48.796;9.480;2022-10-31T00:06:34;14.60;81.40
1347;DHT22;667;48.796;9.480;2022-10-31T00:09:02;14.60;81.40
1347;DHT22;667;48.796;9.480;2022-10-31T00:11:29;14.60;81.70
1347;DHT22;667;48.796;9.480;2022-10-31T00:13:54;14.60;81.90
1347;DHT22;667;48.796;9.480;2022-10-31T00:16:22;14.60;81.80
1347;DHT22;667;48.796;9.480;2022-10-31T00:18:52;14.50;81.60
1347;DHT22;667;48.796;9.480;2022-10-31T00:21:18;14.50;81.70
1347;DHT22;667;48.796;9.480;2022-10-31T00:23:44;14.50;81.90
1347;DHT22;667;48.796;9.480;2022-10-31T00:26:09;14.50;81.90
1347;DHT22;667;48.796;9.480;2022-10-31T00:28:35;14.50;81.70
1347;DHT22;667;48.796;9.480;2022-10-31T00:31:02;14.50;81.60
1347;DHT22;667;48.796;9.480;2022-10-31T00:33:28;14.40;81.80
1347;DHT22;667;48.796;9.480;2022-10-31T00:35:54;14.50;82.10
1347;DHT22;667;48.796;9.480;2022-10-31T00:38:20;14.40;82.00
1347;DHT22;667;48.796;9.480;2022-10-31T00:40:45;14.40;81.80
1347;DHT22;667;48.796;9.480;2022-10-31T00:43:11;14.40;81.80
1347;DHT22;667;48.796;9.480;2022-10-31T00:45:36;14.40;81.70
1347;DHT22;667;48.796;9.480;2022-10-31T00:48:02;14.40;81.60
1347;DHT22;667;48.796;9.480;2022-10-31T00:50:27;14.30;81.50
1347;DHT22;667;48.796;9.480;2022-10-31T00:52:53;14.30;81.50
1347;DHT22;667;48.796;9.480;2022-10-31T00:55:19;14.30;81.40
1347;DHT22;667;48.796;9.480;2022-10-31T00:57:47;14.30;81.40
1347;DHT22;667;48.796;9.480;2022-10-31T01:00:14;14.30;81.50
1347;DHT22;667;48.796;9.480;2022-10-31T01:02:40;14.20;81.10
1347;DHT22;667;48.796;9.480;2022-10-31T01:05:05;14.20;81.10
1347;DHT22;667;48.796;9.480;2022-10-31T01:07:31;14.20;81.00
1347;DHT22;667;48.796;9.480;2022-10-31T01:09:56;14.20;81.20
1347;DHT22;667;48.796;9.480;2022-10-31T01:12:22;14.20;81.30
1347;DHT22;667;48.796;9.480;2022-10-31T01:14:47;14.10;81.30
1347;DHT22;667;48.796;9.480;2022-10-31T01:17:13;14.10;81.60
1347;DHT22;667;48.796;9.480;2022-10-31T01:19:39;14.10;81.60
1347;DHT22;667;48.796;9.480;2022-10-31T01:22:05;14.10;81.50
1347;DHT22;667;48.796;9.480;2022-10-31T01:24:31;14.00;81.40
1347;DHT22;667;48.796;9.480;2022-10-31T01:26:57;14.10;81.80
1347;DHT22;667;48.796;9.480;2022-10-31T01:29:22;14.00;82.10
1347;DHT22;667;48.796;9.480;2022-10-31T01:31:48;14.00;82.10
1347;DHT22;667;48.796;9.480;2022-10-31T01:34:16;13.90;82.10
1347;DHT22;667;48.796;9.480;2022-10-31T01:36:41;13.90;82.60
1347;DHT22;667;48.796;9.480;2022-10-31T01:39:11;13.90;82.70
1347;DHT22;667;48.796;9.480;2022-10-31T01:41:39;13.90;82.70
1347;DHT22;667;48.796;9.480;2022-10-31T01:49:17;13.90;82.70
1347;DHT22;667;48.796;9.480;2022-10-31T01:51:50;13.90;82.70
1347;DHT22;667;48.796;9.480;2022-10-31T01:54:20;13.90;82.50
1347;DHT22;667;48.796;9.480;2022-10-31T01:56:50;13.90;82.40
1347;DHT22;667;48.796;9.480;2022-10-31T01:59:21;13.90;82.40
1347;DHT22;667;48.796;9.480;2022-10-31T02:01:47;13.90;82.40
1347;DHT22;667;48.796;9.480;2022-10-31T02:04:15;13.90;82.50
1347;DHT22;667;48.796;9.480;2022-10-31T02:06:49;13.90;82.50
1347;DHT22;667;48.796;9.480;2022-10-31T02:09:17;13.90;82.10
1347;DHT22;667;48.796;9.480;2022-10-31T02:11:49;13.90;81.80
1347;DHT22;667;48.796;9.480;2022-10-31T02:14:16;13.90;82.00
1347;DHT22;667;48.796;9.480;2022-10-31T02:16:42;13.90;82.20
1347;DHT22;667;48.796;9.480;2022-10-31T02:19:08;13.90;82.30
1347;DHT22;667;48.796;9.480;2022-10-31T02:22:02;13.90;82.30
1347;DHT22;667;48.796;9.480;2022-10-31T02:24:58;13.80;82.10
1347;DHT22;667;48.796;9.480;2022-10-31T02:28:20;13.90;82.10
1347;DHT22;667;48.796;9.480;2022-10-31T02:30:27;13.80;82.00
1347;DHT22;667;48.796;9.480;2022-10-31T02:33:04;13.80;82.00
1347;DHT22;667;48.796;9.480;2022-10-31T02:43:06;13.80;82.10
1347;DHT22;667;48.796;9.480;2022-10-31T02:48:09;13.80;82.00
1347;DHT22;667;48.796;9.480;2022-10-31T02:50:39;13.80;81.90
1347;DHT22;667;48.796;9.480;2022-10-31T02:53:07;13.80;82.00
1347;DHT22;667;48.796;9.480;2022-10-31T03:00:24;13.70;81.50
1347;DHT22;667;48.796;9.480;2022-10-31T03:11:31;13.70;81.10
1347;DHT22;667;48.796;9.480;2022-10-31T03:14:09;13.60;81.40
1347;DHT22;667;48.796;9.480;2022-10-31T03:16:51;13.60;81.60
1347;DHT22;667;48.796;9.480;2022-10-31T03:19:23;13.60;81.60
1347;DHT22;667;48.796;9.480;2022-10-31T03:22:07;13.60;81.60
1347;DHT22;667;48.796;9.480;2022-10-31T03:24:38;13.50;81.50
1347;DHT22;667;48.796;9.480;2022-10-31T03:27:06;13.50;81.50
1347;DHT22;667;48.796;9.480;2022-10-31T03:29:35;13.60;81.70
1347;DHT22;667;48.796;9.480;2022-10-31T03:32:09;13.60;81.50
1347;DHT22;667;48.796;9.480;2022-10-31T03:34:37;13.50;81.20
1347;DHT22;667;48.796;9.480;2022-10-31T03:37:06;13.50;81.00
1347;DHT22;667;48.796;9.480;2022-10-31T03:39:34;13.50;81.10
1347;DHT22;667;48.796;9.480;2022-10-31T03:42:13;13.50;81.10
1347;DHT22;667;48.796;9.480;2022-10-31T03:44:42;13.50;80.70
1347;DHT22;667;48.796;9.480;2022-10-31T03:47:09;13.50;80.80
1347;DHT22;667;48.796;9.480;2022-10-31T03:49:35;13.40;80.70
1347;DHT22;667;48.796;9.480;2022-10-31T03:55:04;13.40;80.60
1347;DHT22;667;48.796;9.480;2022-10-31T04:00:08;13.40;80.70
1347;DHT22;667;48.796;9.480;2022-10-31T04:02:38;13.30;80.60
1347;DHT22;667;48.796;9.480;2022-10-31T04:05:06;13.30;80.60
1347;DHT22;667;48.796;9.480;2022-10-31T04:07:37;13.30;80.40
1347;DHT22;667;48.796;9.480;2022-10-31T04:10:07;13.30;80.70
1347;DHT22;667;48.796;9.480;2022-10-31T04:12:34;13.20;80.90
1347;DHT22;667;48.796;9.480;2022-10-31T04:15:03;13.20;81.10
1347;DHT22;667;48.796;9.480;2022-10-31T04:17:32;13.20;81.30
1347;DHT22;667;48.796;9.480;2022-10-31T04:19:59;13.20;81.50
1347;DHT22;667;48.796;9.480;2022-10-31T04:22:27;13.20;81.40
1347;DHT22;667;48.796;9.480;2022-10-31T04:24:53;13.20;81.60
1347;DHT22;667;48.796;9.480;2022-10-31T04:27:19;13.20;81.70
1347;DHT22;667;48.796;9.480;2022-10-31T04:29:44;13.20;81.70
1347;DHT22;667;48.796;9.480;2022-10-31T04:32:10;13.20;81.70
1347;DHT22;667;48.796;9.480;2022-10-31T04:34:35;13.20;81.60
1347;DHT22;667;48.796;9.480;2022-10-31T04:37:01;13.20;81.50
1347;DHT22;667;48.796;9.480;2022-10-31T04:39:26;13.20;81.20
1347;DHT22;667;48.796;9.480;2022-10-31T04:41:52;13.20;81.20
1347;DHT22;667;48.796;9.480;2022-10-31T04:44:18;13.20;81.10
1347;DHT22;667;48.796;9.480;2022-10-31T04:46:43;13.20;81.20
1347;DHT22;667;48.796;9.480;2022-10-31T04:49:09;13.20;81.00
1347;DHT22;667;48.796;9.480;2022-10-31T04:51:34;13.20;80.90
1347;DHT22;667;48.796;9.480;2022-10-31T04:54:00;13.20;80.80
1347;DHT22;667;48.796;9.480;2022-10-31T04:56:26;13.20;80.70
1347;DHT22;667;48.796;9.480;2022-10-31T04:58:51;13.20;80.50
1347;DHT22;667;48.796;9.480;2022-10-31T05:01:17;13.10;80.40
1347;DHT22;667;48.796;9.480;2022-10-31T05:03:42;13.20;80.50
1347;DHT22;667;48.796;9.480;2022-10-31T05:06:08;13.10;80.30
1347;DHT22;667;48.796;9.480;2022-10-31T05:08:34;13.10;80.30
1347;DHT22;667;48.796;9.480;2022-10-31T05:11:03;13.10;80.20
1347;DHT22;667;48.796;9.480;2022-10-31T05:13:29;13.10;80.40
1347;DHT22;667;48.796;9.480;2022-10-31T05:15:55;13.00;80.40
1347;DHT22;667;48.796;9.480;2022-10-31T05:18:20;13.00;80.50
1347;DHT22;667;48.796;9.480;2022-10-31T05:20:46;13.00;80.60
1347;DHT22;667;48.796;9.480;2022-10-31T05:23:12;13.00;80.90
1347;DHT22;667;48.796;9.480;2022-10-31T05:25:39;13.00;80.70
1347;DHT22;667;48.796;9.480;2022-10-31T05:28:05;13.00;80.70
1347;DHT22;667;48.796;9.480;2022-10-31T05:30:31;13.00;80.60
1347;DHT22;667;48.796;9.480;2022-10-31T05:32:57;13.00;80.40
1347;DHT22;667;48.796;9.480;2022-10-31T05:35:26;13.00;80.60
1347;DHT22;667;48.796;9.480;2022-10-31T05:37:52;13.00;80.70
1347;DHT22;667;48.796;9.480;2022-10-31T05:40:19;13.00;80.50
1347;DHT22;667;48.796;9.480;2022-10-31T05:42:45;13.00;80.40
1347;DHT22;667;48.796;9.480;2022-10-31T05:45:13;13.00;80.50
1347;DHT22;667;48.796;9.480;2022-10-31T05:47:39;13.00;80.40
1347;DHT22;667;48.796;9.480;2022-10-31T05:50:06;13.00;80.30
1347;DHT22;667;48.796;9.480;2022-10-31T05:52:32;12.90;80.00
1347;DHT22;667;48.796;9.480;2022-10-31T05:54:57;12.90;80.40
1347;DHT22;667;48.796;9.480;2022-10-31T05:57:23;12.90;80.50
1347;DHT22;667;48.796;9.480;2022-10-31T05:59:48;12.90;80.70
1347;DHT22;667;48.796;9.480;2022-10-31T06:02:14;12.90;80.70
1347;DHT22;667;48.796;9.480;2022-10-31T06:04:39;12.90;80.80
1347;DHT22;667;48.796;9.480;2022-10-31T06:07:05;12.80;80.60
1347;DHT22;667;48.796;9.480;2022-10-31T06:09:30;12.80;80.40
1347;DHT22;667;48.796;9.480;2022-10-31T06:11:56;12.80;80.30
1347;DHT22;667;48.796;9.480;2022-10-31T06:14:22;12.70;80.60
1347;DHT22;667;48.796;9.480;2022-10-31T06:16:47;12.70;80.80
1347;DHT22;667;48.796;9.480;2022-10-31T06:19:13;12.70;81.00
1347;DHT22;667;48.796;9.480;2022-10-31T06:21:38;12.70;81.40
1347;DHT22;667;48.796;9.480;2022-10-31T06:24:04;12.70;81.60
1347;DHT22;667;48.796;9.480;2022-10-31T06:26:30;12.70;82.00
1347;DHT22;667;48.796;9.480;2022-10-31T06:28:55;12.70;82.90
1347;DHT22;667;48.796;9.480;2022-10-31T06:31:21;12.60;82.40
1347;DHT22;667;48.796;9.480;2022-10-31T06:33:46;12.70;82.60
1347;DHT22;667;48.796;9.480;2022-10-31T06:36:12;12.70;82.60
1347;DHT22;667;48.796;9.480;2022-10-31T06:38:37;12.70;82.60
1347;DHT22;667;48.796;9.480;2022-10-31T06:41:04;12.70;82.50
1347;DHT22;667;48.796;9.480;2022-10-31T06:43:30;12.70;82.40
1347;DHT22;667;48.796;9.480;2022-10-31T06:45:56;12.70;82.50
1347;DHT22;667;48.796;9.480;2022-10-31T06:48:22;12.70;82.60
1347;DHT22;667;48.796;9.480;2022-10-31T06:50:47;12.80;82.60
1347;DHT22;667;48.796;9.480;2022-10-31T06:53:13;12.80;82.60
1347;DHT22;667;48.796;9.480;2022-10-31T06:55:40;12.80;82.70
1347;DHT22;667;48.796;9.480;2022-10-31T06:58:05;12.80;82.60
1347;DHT22;667;48.796;9.480;2022-10-31T07:00:32;12.80;82.50
1347;DHT22;667;48.796;9.480;2022-10-31T07:03:06;12.90;82.70
1347;DHT22;667;48.796;9.480;2022-10-31T07:05:32;12.90;82.60
1347;DHT22;667;48.796;9.480;2022-10-31T07:08:01;12.90;82.50
1347;DHT22;667;48.796;9.480;2022-10-31T07:10:29;12.90;82.40
1347;DHT22;667;48.796;9.480;2022-10-31T07:12:55;13.00;82.70
1347;DHT22;667;48.796;9.480;2022-10-31T07:15:22;13.00;82.60
1347;DHT22;667;48.796;9.480;2022-10-31T07:17:48;13.00;82.60
1347;DHT22;667;48.796;9.480;2022-10-31T07:20:13;13.10;82.70
1347;DHT22;667;48.796;9.480;2022-10-31T07:22:39;13.10;82.60
1347;DHT22;667;48.796;9.480;2022-10-31T07:25:05;13.10;82.60
1347;DHT22;667;48.796;9.480;2022-10-31T07:27:41;13.10;82.60
1347;DHT22;667;48.796;9.480;2022-10-31T07:30:08;13.20;82.80
1347;DHT22;667;48.796;9.480;2022-10-31T07:35:03;13.20;82.90
1347;DHT22;667;48.796;9.480;2022-10-31T07:37:29;13.20;83.00
1347;DHT22;667;48.796;9.480;2022-10-31T07:39:54;13.30;83.10
1347;DHT22;667;48.796;9.480;2022-10-31T07:42:20;13.30;83.30
1347;DHT22;667;48.796;9.480;2022-10-31T07:44:45;13.40;83.50
1347;DHT22;667;48.796;9.480;2022-10-31T07:47:11;13.40;83.60
1347;DHT22;667;48.796;9.480;2022-10-31T07:49:36;13.50;83.70
1347;DHT22;667;48.796;9.480;2022-10-31T07:52:02;13.50;83.40
1347;DHT22;667;48.796;9.480;2022-10-31T07:54:27;13.50;83.10
1347;DHT22;667;48.796;9.480;2022-10-31T07:56:53;13.50;83.20
1347;DHT22;667;48.796;9.480;2022-10-31T07:59:19;13.60;83.20
1347;DHT22;667;48.796;9.480;2022-10-31T08:01:44;13.60;83.40
1347;DHT22;667;48.796;9.480;2022-10-31T08:04:10;13.60;83.60
1347;DHT22;667;48.796;9.480;2022-10-31T08:06:35;13.70;83.80
1347;DHT22;667;48.796;9.480;2022-10-31T08:09:01;13.70;83.70
1347;DHT22;667;48.796;9.480;2022-10-31T08:11:26;13.70;83.50
1347;DHT22;667;48.796;9.480;2022-10-31T08:13:52;13.80;83.70
1347;DHT22;667;48.796;9.480;2022-10-31T08:16:17;13.80;83.80
1347;DHT22;667;48.796;9.480;2022-10-31T08:18:43;13.90;83.80
1347;DHT22;667;48.796;9.480;2022-10-31T08:21:08;13.90;83.70
1347;DHT22;667;48.796;9.480;2022-10-31T08:23:34;14.00;83.50
1347;DHT22;667;48.796;9.480;2022-10-31T08:26:00;14.00;83.60
1347;DHT22;667;48.796;9.480;2022-10-31T08:28:25;14.00;83.50
1347;DHT22;667;48.796;9.480;2022-10-31T08:30:51;14.10;83.50
1347;DHT22;667;48.796;9.480;2022-10-31T08:33:19;14.10;83.50
1347;DHT22;667;48.796;9.480;2022-10-31T08:35:45;14.20;83.70
1347;DHT22;667;48.796;9.480;2022-10-31T08:38:11;14.20;83.80
1347;DHT22;667;48.796;9.480;2022-10-31T08:40:38;14.20;83.90
1347;DHT22;667;48.796;9.480;2022-10-31T08:43:05;14.30;83.90
1347;DHT22;667;48.796;9.480;2022-10-31T08:45:33;14.30;83.80
1347;DHT22;667;48.796;9.480;2022-10-31T08:48:04;14.40;83.70
1347;DHT22;667;48.796;9.480;2022-10-31T08:50:31;14.50;83.90
1347;DHT22;667;48.796;9.480;2022-10-31T08:53:23;14.60;83.90
1347;DHT22;667;48.796;9.480;2022-10-31T08:55:49;14.60;84.00
1347;DHT22;667;48.796;9.480;2022-10-31T08:58:19;14.70;84.30
1347;DHT22;667;48.796;9.480;2022-10-31T09:00:46;14.80;84.50
1347;DHT22;667;48.796;9.480;2022-10-31T09:03:15;14.80;84.50
1347;DHT22;667;48.796;9.480;2022-10-31T09:05:41;14.90;84.50
1347;DHT22;667;48.796;9.480;2022-10-31T09:08:07;15.00;84.40
1347;DHT22;667;48.796;9.480;2022-10-31T09:10:34;15.10;84.10
1347;DHT22;667;48.796;9.480;2022-10-31T09:13:06;15.20;84.10
1347;DHT22;667;48.796;9.480;2022-10-31T09:15:33;15.20;83.90
1347;DHT22;667;48.796;9.480;2022-10-31T09:17:59;15.30;83.90
1347;DHT22;667;48.796;9.480;2022-10-31T09:20:26;15.30;83.70
1347;DHT22;667;48.796;9.480;2022-10-31T09:22:59;15.40;83.80
1347;DHT22;667;48.796;9.480;2022-10-31T09:25:26;15.40;83.80
1347;DHT22;667;48.796;9.480;2022-10-31T09:27:59;15.40;83.80
1347;DHT22;667;48.796;9.480;2022-10-31T09:30:26;15.50;84.00
1347;DHT22;667;48.796;9.480;2022-10-31T09:32:56;15.60;83.90
1347;DHT22;667;48.796;9.480;2022-10-31T09:35:22;15.70;83.90
1347;DHT22;667;48.796;9.480;2022-10-31T09:37:54;15.80;83.50
1347;DHT22;667;48.796;9.480;2022-10-31T09:40:20;15.90;83.40
1347;DHT22;667;48.796;9.480;2022-10-31T09:50:58;16.30;82.50
1347;DHT22;667;48.796;9.480;2022-10-31T09:55:59;16.50;82.00
1347;DHT22;667;48.796;9.480;2022-10-31T09:58:28;16.60;81.50
1347;DHT22;667;48.796;9.480;2022-10-31T10:00:58;16.70;81.00
1347;DHT22;667;48.796;9.480;2022-10-31T10:03:35;16.70;80.50
1347;DHT22;667;48.796;9.480;2022-10-31T10:06:29;16.90;80.50
1347;DHT22;667;48.796;9.480;2022-10-31T10:08:57;17.00;80.40
1347;DHT22;667;48.796;9.480;2022-10-31T10:11:37;17.00;79.90
1347;DHT22;667;48.796;9.480;2022-10-31T10:14:47;17.20;79.80
1347;DHT22;667;48.796;9.480;2022-10-31T10:20:25;17.40;79.40
1347;DHT22;667;48.796;9.480;2022-10-31T10:23:07;17.40;79.50
1347;DHT22;667;48.796;9.480;2022-10-31T10:25:38;17.50;79.60
1347;DHT22;667;48.796;9.480;2022-10-31T10:30:53;17.70;79.40
1347;DHT22;667;48.796;9.480;2022-10-31T10:33:35;17.80;78.80
1347;DHT22;667;48.796;9.480;2022-10-31T10:36:04;17.90;78.50
1347;DHT22;667;48.796;9.480;2022-10-31T10:38:38;18.00;78.10
1347;DHT22;667;48.796;9.480;2022-10-31T10:41:22;18.10;77.70
1347;DHT22;667;48.796;9.480;2022-10-31T10:43:51;18.20;77.90
1347;DHT22;667;48.796;9.480;2022-10-31T10:49:23;18.30;76.80
1347;DHT22;667;48.796;9.480;2022-10-31T11:00:15;18.50;77.00
1347;DHT22;667;48.796;9.480;2022-10-31T11:02:42;18.60;77.00
1347;DHT22;667;48.796;9.480;2022-10-31T11:05:15;18.60;77.10
1347;DHT22;667;48.796;9.480;2022-10-31T11:07:43;18.60;76.90
1347;DHT22;667;48.796;9.480;2022-10-31T11:10:13;18.50;76.80
1347;DHT22;667;48.796;9.480;2022-10-31T11:12:39;18.50;76.90
1347;DHT22;667;48.796;9.480;2022-10-31T11:15:25;18.50;76.80
1347;DHT22;667;48.796;9.480;2022-10-31T11:17:53;18.50;77.00
1347;DHT22;667;48.796;9.480;2022-10-31T11:22:47;18.50;77.80
1347;DHT22;667;48.796;9.480;2022-10-31T11:27:45;18.50;77.80
1347;DHT22;667;48.796;9.480;2022-10-31T11:30:13;18.50;77.80
1347;DHT22;667;48.796;9.480;2022-10-31T11:32:47;18.50;77.80
1347;DHT22;667;48.796;9.480;2022-10-31T11:35:17;18.50;77.50
1347;DHT22;667;48.796;9.480;2022-10-31T11:37:45;18.50;77.30
1347;DHT22;667;48.796;9.480;2022-10-31T11:40:22;18.50;77.40
1347;DHT22;667;48.796;9.480;2022-10-31T11:42:48;18.50;77.10
1347;DHT22;667;48.796;9.480;2022-10-31T11:47:54;18.60;76.40
1347;DHT22;667;48.796;9.480;2022-10-31T11:50:24;18.70;75.90
1347;DHT22;667;48.796;9.480;2022-10-31T11:52:51;18.70;75.30
1347;DHT22;667;48.796;9.480;2022-10-31T11:55:38;18.70;75.20
1347;DHT22;667;48.796;9.480;2022-10-31T11:58:18;18.80;75.10
1347;DHT22;667;48.796;9.480;2022-10-31T12:00:52;18.80;75.20
1347;DHT22;667;48.796;9.480;2022-10-31T12:06:20;18.80;75.00
1347;DHT22;667;48.796;9.480;2022-10-31T12:08:46;18.90;75.70
1347;DHT22;667;48.796;9.480;2022-10-31T12:11:23;18.90;76.20
1347;DHT22;667;48.796;9.480;2022-10-31T12:19:05;19.00;75.80
1347;DHT22;667;48.796;9.480;2022-10-31T12:27:20;19.20;76.50
1347;DHT22;667;48.796;9.480;2022-10-31T12:32:52;19.20;77.10
1347;DHT22;667;48.796;9.480;2022-10-31T12:35:54;19.20;76.60
1347;DHT22;667;48.796;9.480;2022-10-31T12:38:30;19.30;76.40
1347;DHT22;667;48.796;9.480;2022-10-31T12:41:26;19.20;76.40
1347;DHT22;667;48.796;9.480;2022-10-31T12:44:30;19.20;76.40
1347;DHT22;667;48.796;9.480;2022-10-31T12:47:12;19.30;76.70
1347;DHT22;667;48.796;9.480;2022-10-31T12:58:26;19.20;77.30
1347;DHT22;667;48.796;9.480;2022-10-31T13:00:53;19.20;77.50
1347;DHT22;667;48.796;9.480;2022-10-31T13:05:52;19.20;77.70
1347;DHT22;667;48.796;9.480;2022-10-31T13:08:43;19.20;77.90
1347;DHT22;667;48.796;9.480;2022-10-31T13:11:29;19.20;78.10
1347;DHT22;667;48.796;9.480;2022-10-31T13:14:20;19.20;78.10
1347;DHT22;667;48.796;9.480;2022-10-31T13:16:48;19.20;78.30
1347;DHT22;667;48.796;9.480;2022-10-31T13:19:34;19.10;78.40
1347;DHT22;667;48.796;9.480;2022-10-31T13:25:03;19.10;79.30
1347;DHT22;667;48.796;9.480;2022-10-31T13:32:49;19.10;80.10
1347;DHT22;667;48.796;9.480;2022-10-31T13:35:31;19.10;80.20
1347;DHT22;667;48.796;9.480;2022-10-31T13:38:12;19.10;80.20
1347;DHT22;667;48.796;9.480;2022-10-31T13:40:48;19.10;80.50
1347;DHT22;667;48.796;9.480;2022-10-31T13:43:36;19.10;80.70
1347;DHT22;667;48.796;9.480;2022-10-31T13:48:55;19.10;81.70
1347;DHT22;667;48.796;9.480;2022-10-31T13:51:27;19.10;81.80
1347;DHT22;667;48.796;9.480;2022-10-31T13:56:24;19.10;82.30
1347;DHT22;667;48.796;9.480;2022-10-31T14:01:29;19.20;82.70
1347;DHT22;667;48.796;9.480;2022-10-31T14:04:12;19.20;82.50
1347;DHT22;667;48.796;9.480;2022-10-31T14:09:14;19.20;81.90
1347;DHT22;667;48.796;9.480;2022-10-31T14:11:46;19.30;81.70
1347;DHT22;667;48.796;9.480;2022-10-31T14:14:12;19.30;81.40
1347;DHT22;667;48.796;9.480;2022-10-31T14:16:40;19.30;81.10
1347;DHT22;667;48.796;9.480;2022-10-31T14:19:34;19.30;80.90
1347;DHT22;667;48.796;9.480;2022-10-31T14:21:59;19.40;80.90
1347;DHT22;667;48.796;9.480;2022-10-31T14:27:33;19.30;80.50
1347;DHT22;667;48.796;9.480;2022-10-31T14:29:50;19.30;80.40
1347;DHT22;667;48.796;9.480;2022-10-31T14:32:23;19.30;80.40
1347;DHT22;667;48.796;9.480;2022-10-31T14:34:55;19.30;80.30
1347;DHT22;667;48.796;9.480;2022-10-31T14:43:22;19.20;80.00
1347;DHT22;667;48.796;9.480;2022-10-31T14:48:59;19.20;80.20
1347;DHT22;667;48.796;9.480;2022-10-31T14:51:42;19.10;80.00
1347;DHT22;667;48.796;9.480;2022-10-31T14:54:15;19.10;80.10
1347;DHT22;667;48.796;9.480;2022-10-31T14:57:05;19.10;80.10
1347;DHT22;667;48.796;9.480;2022-10-31T14:59:36;19.10;80.00
1347;DHT22;667;48.796;9.480;2022-10-31T15:02:37;19.00;80.10
1347;DHT22;667;48.796;9.480;2022-10-31T15:05:10;19.00;80.30
1347;DHT22;667;48.796;9.480;2022-10-31T15:07:36;19.00;80.50
1347;DHT22;667;48.796;9.480;2022-10-31T15:10:22;18.90;80.60
1347;DHT22;667;48.796;9.480;2022-10-31T15:12:48;18.90;80.80
1347;DHT22;667;48.796;9.480;2022-10-31T15:15:24;18.90;81.00
1347;DHT22;667;48.796;9.480;2022-10-31T15:17:57;18.90;81.20
1347;DHT22;667;48.796;9.480;2022-10-31T15:20:26;18.90;81.50
1347;DHT22;667;48.796;9.480;2022-10-31T15:22:55;18.80;82.00
1347;DHT22;667;48.796;9.480;2022-10-31T15:25:24;18.80;82.60
1347;DHT22;667;48.796;9.480;2022-10-31T15:27:51;18.70;83.20
1347;DHT22;667;48.796;9.480;2022-10-31T15:30:20;18.70;83.70
1347;DHT22;667;48.796;9.480;2022-10-31T15:32:46;18.70;84.20
1347;DHT22;667;48.796;9.480;2022-10-31T15:35:21;18.60;84.50
1347;DHT22;667;48.796;9.480;2022-10-31T15:37:47;18.60;84.90
1347;DHT22;667;48.796;9.480;2022-10-31T15:40:17;18.60;85.00
1347;DHT22;667;48.796;9.480;2022-10-31T15:42:57;18.50;85.40
1347;DHT22;667;48.796;9.480;2022-10-31T15:45:26;18.50;85.90
1347;DHT22;667;48.796;9.480;2022-10-31T15:48:13;18.50;86.10
1347;DHT22;667;48.796;9.480;2022-10-31T15:50:55;18.40;86.20
1347;DHT22;667;48.796;9.480;2022-10-31T15:55:59;18.30;86.30
1347;DHT22;667;48.796;9.480;2022-10-31T15:58:26;18.30;86.50
1347;DHT22;667;48.796;9.480;2022-10-31T16:01:01;18.20;86.40
1347;DHT22;667;48.796;9.480;2022-10-31T16:03:32;18.20;86.70
1347;DHT22;667;48.796;9.480;2022-10-31T16:06:00;18.10;86.70
1347;DHT22;667;48.796;9.480;2022-10-31T16:13:33;18.00;87.10
1347;DHT22;667;48.796;9.480;2022-10-31T16:16:01;17.90;87.00
1347;DHT22;667;48.796;9.480;2022-10-31T16:18:29;17.90;87.10
1347;DHT22;667;48.796;9.480;2022-10-31T16:21:00;17.80;87.00
1347;DHT22;667;48.796;9.480;2022-10-31T16:23:26;17.80;86.90
1347;DHT22;667;48.796;9.480;2022-10-31T16:25:53;17.70;86.80
1347;DHT22;667;48.796;9.480;2022-10-31T16:28:24;17.60;86.50
1347;DHT22;667;48.796;9.480;2022-10-31T16:30:55;17.60;86.40
1347;DHT22;667;48.796;9.480;2022-10-31T16:35:49;17.50;86.30
1347;DHT22;667;48.796;9.480;2022-10-31T16:38:15;17.50;86.40
1347;DHT22;667;48.796;9.480;2022-10-31T16:40:40;17.40;86.20
1347;DHT22;667;48.796;9.480;2022-10-31T16:43:13;17.40;86.40
1347;DHT22;667;48.796;9.480;2022-10-31T16:45:50;17.30;86.40
1347;DHT22;667;48.796;9.480;2022-10-31T16:48:21;17.30;86.50
1347;DHT22;667;48.796;9.480;2022-10-31T16:50:48;17.20;86.40
1347;DHT22;667;48.796;9.480;2022-10-31T16:53:15;17.20;86.40
1347;DHT22;667;48.796;9.480;2022-10-31T16:55:54;17.10;86.00
1347;DHT22;667;48.796;9.480;2022-10-31T16:58:30;17.10;85.90
1347;DHT22;667;48.796;9.480;2022-10-31T17:01:01;17.00;85.80
1347;DHT22;667;48.796;9.480;2022-10-31T17:03:29;17.00;86.00
1347;DHT22;667;48.796;9.480;2022-10-31T17:05:55;17.00;86.10
1347;DHT22;667;48.796;9.480;2022-10-31T17:08:21;16.90;86.20
1347;DHT22;667;48.796;9.480;2022-10-31T17:10:47;16.90;86.30
1347;DHT22;667;48.796;9.480;2022-10-31T17:13:20;16.80;86.10
1347;DHT22;667;48.796;9.480;2022-10-31T17:15:47;16.80;86.20
1347;DHT22;667;48.796;9.480;2022-10-31T17:18:15;16.80;86.10
1347;DHT22;667;48.796;9.480;2022-10-31T17:20:42;16.70;86.00
1347;DHT22;667;48.796;9.480;2022-10-31T17:23:10;16.70;86.20
1347;DHT22;667;48.796;9.480;2022-10-31T17:25:36;16.70;86.20
1347;DHT22;667;48.796;9.480;2022-10-31T17:28:01;16.60;86.30
1347;DHT22;667;48.796;9.480;2022-10-31T17:30:27;16.60;86.60
1347;DHT22;667;48.796;9.480;2022-10-31T17:32:53;16.50;86.80
1347;DHT22;667;48.796;9.480;2022-10-31T17:35:20;16.50;86.90
1347;DHT22;667;48.796;9.480;2022-10-31T17:37:46;16.50;86.90
1347;DHT22;667;48.796;9.480;2022-10-31T17:40:15;16.40;86.60
1347;DHT22;667;48.796;9.480;2022-10-31T17:42:41;16.40;86.60
1347;DHT22;667;48.796;9.480;2022-10-31T17:45:07;16.40;86.50
1347;DHT22;667;48.796;9.480;2022-10-31T17:47:34;16.40;86.20
1347;DHT22;667;48.796;9.480;2022-10-31T17:50:00;16.30;86.20
1347;DHT22;667;48.796;9.480;2022-10-31T17:52:25;16.30;86.10
1347;DHT22;667;48.796;9.480;2022-10-31T17:54:51;16.30;86.00
1347;DHT22;667;48.796;9.480;2022-10-31T17:57:16;16.20;85.90
1347;DHT22;667;48.796;9.480;2022-10-31T17:59:42;16.20;86.90
1347;DHT22;667;48.796;9.480;2022-10-31T18:02:09;16.20;86.70
1347;DHT22;667;48.796;9.480;2022-10-31T18:04:35;16.10;86.90
1347;DHT22;667;48.796;9.480;2022-10-31T18:07:01;16.10;86.90
1347;DHT22;667;48.796;9.480;2022-10-31T18:09:27;16.10;86.80
1347;DHT22;667;48.796;9.480;2022-10-31T18:11:52;16.10;86.30
1347;DHT22;667;48.796;9.480;2022-10-31T18:14:18;16.10;86.00
1347;DHT22;667;48.796;9.480;2022-10-31T18:16:44;16.00;85.50
1347;DHT22;667;48.796;9.480;2022-10-31T18:19:12;16.00;85.10
1347;DHT22;667;48.796;9.480;2022-10-31T18:21:38;15.90;85.10
1347;DHT22;667;48.796;9.480;2022-10-31T18:24:04;15.90;85.10
1347;DHT22;667;48.796;9.480;2022-10-31T18:26:30;15.80;85.30
1347;DHT22;667;48.796;9.480;2022-10-31T18:28:56;15.80;85.40
1347;DHT22;667;48.796;9.480;2022-10-31T18:31:22;15.70;85.70
1347;DHT22;667;48.796;9.480;2022-10-31T18:33:48;15.60;85.60
1347;DHT22;667;48.796;9.480;2022-10-31T18:36:16;15.60;85.90
1347;DHT22;667;48.796;9.480;2022-10-31T18:38:42;15.60;86.00
1347;DHT22;667;48.796;9.480;2022-10-31T18:41:12;15.60;86.20
1347;DHT22;667;48.796;9.480;2022-10-31T18:43:39;15.60;86.20
1347;DHT22;667;48.796;9.480;2022-10-31T18:46:06;15.60;86.00
1347;DHT22;667;48.796;9.480;2022-10-31T18:48:33;15.50;85.90
1347;DHT22;667;48.796;9.480;2022-10-31T18:51:07;15.50;85.90
1347;DHT22;667;48.796;9.480;2022-10-31T18:53:34;15.50;86.00